Terminal Aerodrome Forecast
Issued by NWS State College, PA

Home | Current Version | Previous Version | Text Only | Print | Product List | Glossary On
Versions: 1 2 3 4 5 6 7 8 9 10 11 12 13 14 15 16 17 18 19 20 21 22 23 24 25 26 27 28 29 30
000
FTUS41 KCTP 182325
TAFIPT
TAF
KIPT 182325Z 1900/1924 20004KT P6SM SKC
     FM191030 11008KT P6SM BKN150 WS020/19035KT
     FM191300 10009G16KT P6SM BKN025 OVC050
     FM191700 18010KT 3SM -SHRA BR SCT007 OVC015
     FM192300 18010KT 4SM BR OVC015=

USA.gov is the U.S. government's official web portal to all federal, state and local government web resources and services.